createdAt,value
2018-09-20T00:00:20.906Z,20.58
2018-09-20T00:02:23.912Z,20.57
2018-09-20T00:04:26.885Z,20.56
2018-09-20T00:06:30.161Z,20.48
2018-09-20T00:08:33.168Z,20.55
2018-09-20T00:10:36.187Z,20.52
2018-09-20T00:12:39.395Z,20.63
2018-09-20T00:14:44.149Z,20.58
2018-09-20T00:16:47.130Z,20.57
2018-09-20T00:18:50.478Z,20.63
2018-09-20T00:20:53.443Z,20.48
2018-09-20T00:22:56.444Z,20.55
2018-09-20T00:24:59.614Z,20.68
2018-09-20T00:27:02.883Z,20.77
2018-09-20T00:29:05.975Z,20.72
2018-09-20T00:31:09.281Z,20.66
2018-09-20T00:33:13.233Z,20.59
2018-09-20T00:35:16.424Z,20.49
2018-09-20T00:37:19.667Z,20.46
2018-09-20T00:39:23.355Z,20.43
2018-09-20T00:41:26.316Z,20.37
2018-09-20T00:43:29.498Z,20.47
2018-09-20T00:45:32.472Z,20.40
2018-09-20T00:47:35.578Z,20.35
2018-09-20T00:49:38.813Z,20.42
2018-09-20T00:51:43.484Z,20.27
2018-09-20T00:53:46.487Z,20.21
2018-09-20T00:55:49.993Z,20.19
2018-09-20T00:57:52.955Z,20.14
2018-09-20T00:59:56.197Z,20.27
2018-09-20T01:01:59.612Z,20.29
2018-09-20T01:04:02.640Z,20.30
2018-09-20T01:06:05.911Z,20.19
2018-09-20T01:08:08.908Z,20.27
2018-09-20T01:10:12.720Z,20.24
2018-09-20T01:12:15.974Z,20.18
2018-09-20T01:14:19.056Z,20.18
2018-09-20T01:16:22.065Z,20.18
2018-09-20T01:18:25.246Z,20.19
2018-09-20T01:20:28.252Z,20.30
2018-09-20T01:22:31.230Z,20.23
2018-09-20T01:24:34.525Z,20.13
2018-09-20T01:26:37.552Z,20.14
2018-09-20T01:28:40.550Z,20.20
2018-09-20T01:30:45.320Z,20.08
2018-09-20T01:32:48.385Z,20.19
2018-09-20T01:34:51.418Z,20.28
2018-09-20T01:36:54.672Z,20.19
2018-09-20T01:38:57.682Z,19.95
2018-09-20T01:41:00.968Z,20.08
2018-09-20T01:43:04.280Z,19.93
2018-09-20T01:45:07.486Z,19.95
2018-09-20T01:47:10.567Z,20.03
2018-09-20T01:49:15.780Z,19.80
2018-09-20T01:51:18.992Z,19.83
2018-09-20T01:53:22.086Z,19.67
2018-09-20T01:55:25.354Z,19.70
2018-09-20T01:57:28.435Z,19.56
2018-09-20T01:59:31.788Z,19.46
2018-09-20T02:01:34.895Z,19.41
2018-09-20T02:03:37.989Z,19.41
2018-09-20T02:05:43.076Z,19.28
2018-09-20T02:07:46.166Z,19.22
2018-09-20T02:09:49.348Z,19.23
2018-09-20T02:11:52.711Z,19.13
2018-09-20T02:13:55.805Z,19.56
2018-09-20T02:15:58.854Z,19.61
2018-09-20T02:18:02.199Z,19.25
2018-09-20T02:20:05.337Z,19.20
2018-09-20T02:22:08.385Z,19.39
2018-09-20T02:24:13.524Z,19.20
2018-09-20T02:26:16.628Z,19.27
2018-09-20T02:28:19.664Z,19.09
2018-09-20T02:30:22.961Z,18.91
2018-09-20T02:32:26.032Z,19.08
2018-09-20T02:34:29.095Z,19.40
2018-09-20T02:36:33.018Z,19.28
2018-09-20T02:38:36.106Z,19.13
2018-09-20T02:40:39.192Z,19.04
2018-09-20T02:42:44.073Z,19.06
2018-09-20T02:44:47.215Z,18.86
2018-09-20T02:46:50.243Z,18.79
2018-09-20T02:48:53.518Z,18.76
2018-09-20T02:50:56.612Z,18.78
2018-09-20T02:52:59.661Z,18.80
2018-09-20T02:55:03.003Z,18.81
2018-09-20T02:57:06.087Z,18.76
2018-09-20T02:59:09.335Z,18.65
2018-09-20T03:01:14.398Z,18.57
2018-09-20T03:03:17.491Z,18.57
2018-09-20T03:05:20.548Z,18.53
2018-09-20T03:07:23.812Z,18.58
2018-09-20T03:09:26.868Z,18.64
2018-09-20T03:11:29.954Z,18.51
2018-09-20T03:13:33.383Z,18.41
2018-09-20T03:15:36.472Z,18.54
2018-09-20T03:17:39.534Z,18.51
2018-09-20T03:19:44.046Z,18.45
2018-09-20T03:21:47.134Z,18.33
2018-09-20T03:23:50.217Z,18.55
2018-09-20T03:25:53.549Z,18.51
2018-09-20T03:27:56.889Z,18.50
2018-09-20T03:30:00.035Z,18.46
2018-09-20T03:32:03.109Z,18.28
2018-09-20T03:34:06.515Z,18.16
2018-09-20T03:36:09.605Z,18.06
2018-09-20T03:38:13.490Z,18.00
2018-09-20T03:40:16.683Z,17.91
2018-09-20T03:42:19.644Z,17.94
2018-09-20T03:44:22.597Z,17.85
2018-09-20T03:46:25.823Z,17.93
2018-09-20T03:48:28.866Z,17.98
2018-09-20T03:50:31.855Z,17.94
2018-09-20T03:52:35.256Z,17.87
2018-09-20T03:54:38.228Z,18.00
2018-09-20T03:56:42.205Z,18.05
2018-09-20T03:58:45.393Z,17.97
2018-09-20T04:00:48.526Z,17.77
2018-09-20T04:02:51.526Z,17.69
2018-09-20T04:04:54.830Z,17.63
2018-09-20T04:06:57.806Z,17.52
2018-09-20T04:09:00.778Z,17.39
2018-09-20T04:11:04.117Z,17.38
2018-09-20T04:13:07.101Z,17.33
2018-09-20T04:15:13.017Z,17.33
2018-09-20T04:17:16.210Z,17.41
2018-09-20T04:19:19.212Z,17.26
2018-09-20T04:21:28.845Z,17.23
2018-09-20T04:23:32.134Z,17.46
2018-09-20T04:25:35.109Z,17.51
2018-09-20T04:27:38.089Z,17.38
2018-09-20T04:29:42.983Z,17.24
2018-09-20T04:31:45.976Z,17.28
2018-09-20T04:33:49.103Z,17.20
2018-09-20T04:35:52.426Z,17.20
2018-09-20T04:37:55.385Z,17.15
2018-09-20T04:39:58.408Z,17.09
2018-09-20T04:42:01.680Z,17.07
2018-09-20T04:44:04.697Z,17.06
2018-09-20T04:46:07.687Z,17.26
2018-09-20T04:48:10.904Z,17.14
2018-09-20T04:50:18.087Z,17.17
2018-09-20T04:52:23.223Z,17.33
2018-09-20T04:54:26.510Z,17.18
2018-09-20T04:56:29.622Z,17.17
2018-09-20T04:58:32.640Z,17.12
2018-09-20T05:00:35.829Z,17.17
2018-09-20T05:02:38.832Z,17.17
2018-09-20T05:04:43.451Z,17.15
2018-09-20T05:06:46.694Z,17.15
2018-09-20T05:08:49.706Z,17.15
2018-09-20T05:10:52.658Z,17.21
2018-09-20T05:12:55.915Z,17.23
2018-09-20T05:14:58.997Z,17.26
2018-09-20T05:17:03.189Z,17.22
2018-09-20T05:19:06.444Z,17.25
2018-09-20T05:21:09.463Z,17.51
2018-09-20T05:23:13.775Z,17.86
2018-09-20T05:25:17.036Z,17.71
2018-09-20T05:27:19.995Z,17.51
2018-09-20T05:29:23.084Z,17.52
2018-09-20T05:31:26.364Z,17.47
2018-09-20T05:33:29.394Z,17.39
2018-09-20T05:35:36.500Z,17.36
2018-09-20T05:37:39.675Z,17.35
2018-09-20T05:39:44.404Z,17.36
2018-09-20T05:41:47.366Z,17.33
2018-09-20T05:43:50.647Z,17.34
2018-09-20T05:45:53.649Z,17.36
2018-09-20T05:47:56.628Z,17.30
2018-09-20T05:49:59.876Z,17.27
2018-09-20T05:52:02.875Z,17.28
2018-09-20T05:54:06.095Z,17.32
2018-09-20T05:56:09.309Z,17.36
2018-09-20T05:58:12.947Z,17.41
2018-09-20T06:00:15.951Z,17.39
2018-09-20T06:02:19.102Z,17.43
2018-09-20T06:04:22.101Z,17.47
2018-09-20T06:06:25.088Z,17.49
2018-09-20T06:08:28.336Z,17.52
2018-09-20T06:10:31.320Z,17.60
2018-09-20T06:12:34.311Z,17.65
2018-09-20T06:14:37.635Z,17.71
2018-09-20T06:16:40.874Z,17.75
2018-09-20T06:18:45.748Z,17.80
2018-09-20T06:20:48.787Z,17.89
2018-09-20T06:22:52.076Z,17.98
2018-09-20T06:24:55.053Z,18.04
2018-09-20T06:26:58.024Z,18.12
2018-09-20T06:29:01.305Z,18.19
2018-09-20T06:31:04.313Z,18.20
2018-09-20T06:33:07.342Z,18.25
2018-09-20T06:35:10.521Z,18.31
2018-09-20T06:37:15.728Z,18.41
2018-09-20T06:39:18.676Z,18.54
2018-09-20T06:41:21.654Z,18.64
2018-09-20T06:43:24.818Z,18.76
2018-09-20T06:45:27.803Z,18.90
2018-09-20T06:47:30.769Z,18.95
2018-09-20T06:49:33.997Z,18.96
2018-09-20T06:51:36.960Z,19.11
2018-09-20T06:53:39.918Z,19.21
2018-09-20T06:55:43.721Z,19.33
2018-09-20T06:57:46.658Z,19.46
2018-09-20T06:59:49.623Z,19.56
2018-09-20T07:01:54.183Z,19.72
2018-09-20T07:03:57.256Z,19.84
2018-09-20T07:06:00.321Z,20.01
2018-09-20T07:08:03.557Z,20.23
2018-09-20T07:10:06.756Z,20.49
2018-09-20T07:12:09.840Z,20.76
2018-09-20T07:14:15.004Z,20.90
2018-09-20T07:16:18.056Z,21.04
2018-09-20T07:18:21.144Z,21.23
2018-09-20T07:20:24.418Z,21.41
2018-09-20T07:22:27.492Z,21.50
2018-09-20T07:24:30.662Z,21.76
2018-09-20T07:26:34.268Z,21.90
2018-09-20T07:28:37.337Z,22.22
2018-09-20T07:30:40.464Z,22.26
2018-09-20T07:32:45.638Z,22.42
2018-09-20T07:34:48.884Z,22.86
2018-09-20T07:36:51.964Z,22.93
2018-09-20T07:38:55.202Z,23.06
2018-09-20T07:40:58.295Z,23.25
2018-09-20T07:43:01.623Z,23.64
2018-09-20T07:45:04.772Z,23.65
2018-09-20T07:47:07.908Z,24.06
2018-09-20T07:49:12.635Z,24.27
2018-09-20T07:51:15.793Z,24.22
2018-09-20T07:53:18.898Z,24.55
2018-09-20T07:55:22.177Z,24.79
2018-09-20T07:57:28.465Z,24.86
2018-09-20T07:59:31.546Z,24.87
2018-09-20T08:01:35.040Z,25.12
2018-09-20T08:04:19.516Z,25.00
2018-09-20T08:06:28.649Z,25.41
2018-09-20T08:08:31.975Z,25.63
2018-09-20T08:10:35.005Z,25.85
2018-09-20T08:12:37.977Z,25.73
2018-09-20T08:14:41.496Z,26.04
2018-09-20T08:16:44.457Z,26.02
2018-09-20T08:18:47.449Z,25.91
2018-09-20T08:20:50.738Z,26.10
2018-09-20T08:22:53.739Z,26.18
2018-09-20T08:24:56.733Z,26.49
2018-09-20T08:26:59.987Z,26.59
2018-09-20T08:29:02.991Z,26.42
2018-09-20T08:31:05.996Z,26.33
2018-09-20T08:33:09.244Z,26.46
2018-09-20T08:35:13.658Z,26.53
2018-09-20T08:37:16.728Z,26.88
2018-09-20T08:39:19.874Z,26.62
2018-09-20T08:41:26.025Z,26.61
2018-09-20T08:43:29.015Z,26.77
2018-09-20T08:45:48.976Z,27.10
2018-09-20T08:47:58.894Z,27.46
2018-09-20T08:50:02.076Z,27.01
2018-09-20T08:52:05.510Z,27.26
2018-09-20T08:54:08.605Z,27.52
2018-09-20T08:56:13.733Z,27.48
2018-09-20T08:58:17.005Z,27.53
2018-09-20T09:00:20.241Z,27.37
2018-09-20T09:02:23.309Z,27.41
2018-09-20T09:04:26.765Z,27.24
2018-09-20T09:06:29.760Z,26.95
2018-09-20T09:08:32.740Z,27.03
2018-09-20T09:10:36.002Z,27.41
2018-09-20T09:12:38.981Z,27.62
2018-09-20T09:14:43.322Z,27.63
2018-09-20T09:16:46.568Z,27.72
2018-09-20T09:18:49.543Z,27.62
2018-09-20T09:20:52.525Z,27.39
2018-09-20T09:22:55.691Z,27.60
2018-09-20T09:24:58.659Z,27.73
2018-09-20T09:27:01.629Z,27.66
2018-09-20T09:29:04.929Z,27.91
2018-09-20T09:31:07.931Z,27.82
2018-09-20T09:33:10.913Z,28.21
2018-09-20T09:35:15.692Z,28.74
2018-09-20T09:37:18.850Z,28.37
2018-09-20T09:39:21.812Z,28.78
2018-09-20T09:41:25.054Z,29.00
2018-09-20T09:43:28.058Z,29.25
2018-09-20T09:45:31.035Z,28.69
2018-09-20T09:47:34.257Z,29.15
2018-09-20T09:49:37.244Z,29.07
2018-09-20T09:51:40.198Z,29.22
2018-09-20T09:53:45.271Z,29.23
2018-09-20T09:55:48.320Z,29.06
2018-09-20T09:57:52.957Z,29.40
2018-09-20T09:59:56.330Z,29.90
2018-09-20T10:01:59.346Z,30.06
2018-09-20T10:04:02.442Z,30.18
2018-09-20T10:06:05.780Z,30.28
2018-09-20T10:08:08.849Z,30.04
2018-09-20T10:10:13.555Z,30.04
2018-09-20T10:12:16.851Z,29.90
2018-09-20T10:14:19.903Z,30.06
2018-09-20T10:16:23.083Z,30.59
2018-09-20T10:18:26.422Z,30.20
2018-09-20T10:20:29.488Z,30.11
2018-09-20T10:22:32.539Z,30.07
2018-09-20T10:24:35.930Z,28.71
2018-09-20T10:26:38.969Z,29.41
2018-09-20T10:28:43.473Z,28.69
2018-09-20T10:30:46.729Z,28.97
2018-09-20T10:32:50.037Z,29.43
2018-09-20T10:34:53.105Z,29.97
2018-09-20T10:36:56.440Z,29.71
2018-09-20T10:38:59.572Z,30.03
2018-09-20T10:41:02.623Z,29.64
2018-09-20T10:43:05.904Z,30.21
2018-09-20T10:45:09.419Z,30.25
2018-09-20T10:47:14.588Z,30.44
2018-09-20T10:49:17.954Z,30.08
2018-09-20T10:51:21.015Z,29.71
2018-09-20T10:53:24.119Z,30.09
2018-09-20T10:55:27.468Z,30.17
2018-09-20T10:57:30.512Z,30.32
2018-09-20T10:59:34.187Z,30.07
2018-09-20T11:01:37.542Z,30.25
2018-09-20T11:03:40.585Z,29.99
2018-09-20T11:05:45.265Z,30.11
2018-09-20T11:07:48.656Z,30.59
2018-09-20T11:09:51.705Z,30.98
2018-09-20T11:11:54.969Z,30.37
2018-09-20T11:13:58.037Z,29.89
2018-09-20T11:16:01.047Z,30.37
2018-09-20T11:18:04.372Z,30.21
2018-09-20T11:20:07.481Z,29.89
2018-09-20T11:22:10.555Z,29.45
2018-09-20T11:24:15.472Z,30.04
2018-09-20T11:26:18.572Z,30.16
2018-09-20T11:28:21.619Z,30.70
2018-09-20T11:30:24.893Z,30.48
2018-09-20T11:32:27.963Z,30.44
2018-09-20T11:34:31.055Z,30.59
2018-09-20T11:36:34.457Z,30.82
2018-09-20T11:38:37.512Z,30.70
2018-09-20T11:40:40.791Z,30.09
2018-09-20T11:42:45.588Z,30.52
2018-09-20T11:44:48.629Z,30.61
2018-09-20T11:46:51.646Z,30.54
2018-09-20T11:48:54.875Z,30.38
2018-09-20T11:50:57.958Z,30.06
2018-09-20T11:53:01.036Z,30.22
2018-09-20T11:55:04.479Z,30.48
2018-09-20T11:57:07.528Z,30.46
2018-09-20T11:59:10.600Z,30.12
2018-09-20T12:01:15.583Z,30.48
2018-09-20T12:03:18.693Z,30.27
2018-09-20T12:05:22.113Z,30.28
2018-09-20T12:07:25.435Z,30.46
2018-09-20T12:09:28.485Z,30.66
2018-09-20T12:11:31.594Z,31.16
2018-09-20T12:13:34.860Z,31.37
2018-09-20T12:15:37.943Z,31.51
2018-09-20T12:17:40.995Z,31.28
2018-09-20T12:19:44.297Z,31.58
2018-09-20T12:21:47.365Z,31.07
2018-09-20T12:23:50.455Z,31.17
2018-09-20T12:25:53.846Z,30.79
2018-09-20T12:27:56.888Z,30.96
2018-09-20T12:30:00.206Z,31.16
2018-09-20T12:32:03.515Z,30.82
2018-09-20T12:34:06.567Z,31.26
2018-09-20T12:36:09.629Z,31.14
2018-09-20T12:38:15.193Z,31.17
2018-09-20T12:40:18.259Z,31.33
2018-09-20T12:42:21.337Z,31.44
2018-09-20T12:44:24.612Z,31.11
2018-09-20T12:46:27.695Z,31.50
2018-09-20T12:48:30.724Z,31.48
2018-09-20T12:50:34.056Z,31.36
2018-09-20T12:52:37.096Z,31.41
2018-09-20T12:54:40.159Z,31.36
2018-09-20T12:56:43.836Z,31.07
2018-09-20T12:58:48.741Z,31.02
2018-09-20T13:00:51.795Z,31.51
2018-09-20T13:02:55.111Z,31.30
2018-09-20T13:04:58.182Z,31.31
2018-09-20T13:07:01.209Z,31.75
2018-09-20T13:09:07.168Z,31.50
2018-09-20T13:11:10.259Z,31.42
2018-09-20T13:13:14.947Z,31.53
2018-09-20T13:15:18.199Z,32.19
2018-09-20T13:17:21.286Z,31.94
2018-09-20T13:19:24.304Z,31.94
2018-09-20T13:21:27.577Z,31.61
2018-09-20T13:23:30.893Z,32.18
2018-09-20T13:25:33.911Z,32.02
2018-09-20T13:27:37.220Z,31.85
2018-09-20T13:29:40.183Z,32.35
2018-09-20T13:31:44.425Z,32.23
2018-09-20T13:33:47.715Z,32.56
2018-09-20T13:35:50.693Z,32.65
2018-09-20T13:37:53.668Z,32.21
2018-09-20T13:39:56.943Z,31.96
2018-09-20T13:41:59.941Z,31.99
2018-09-20T13:44:02.906Z,32.51
2018-09-20T13:46:06.352Z,32.15
2018-09-20T13:48:09.355Z,31.78
2018-09-20T13:50:13.932Z,31.82
2018-09-20T13:52:17.203Z,32.30
2018-09-20T13:54:20.185Z,32.31
2018-09-20T13:56:23.199Z,32.03
2018-09-20T13:58:26.347Z,31.93
2018-09-20T14:00:29.342Z,31.90
2018-09-20T14:02:32.353Z,31.87
2018-09-20T14:04:35.489Z,31.84
2018-09-20T14:06:38.505Z,31.34
2018-09-20T14:08:43.071Z,31.36
2018-09-20T14:10:46.201Z,31.81
2018-09-20T14:12:49.198Z,31.58
2018-09-20T14:14:52.577Z,31.65
2018-09-20T14:16:55.553Z,31.78
2018-09-20T14:18:58.545Z,31.84
2018-09-20T14:21:01.750Z,32.25
2018-09-20T14:23:04.781Z,31.76
2018-09-20T14:25:07.801Z,32.10
2018-09-20T14:27:10.839Z,32.24
2018-09-20T14:29:15.984Z,32.57
2018-09-20T14:31:19.025Z,32.75
2018-09-20T14:33:22.009Z,32.26
2018-09-20T14:35:25.018Z,31.87
2018-09-20T14:37:28.096Z,31.71
2018-09-20T14:39:31.154Z,31.92
2018-09-20T14:41:34.454Z,31.75
2018-09-20T14:43:37.527Z,31.60
2018-09-20T14:45:40.537Z,31.87
2018-09-20T14:47:45.297Z,31.62
2018-09-20T14:49:48.277Z,31.64
2018-09-20T14:51:51.386Z,31.58
2018-09-20T14:53:54.860Z,31.98
2018-09-20T14:55:57.889Z,31.94
2018-09-20T14:58:00.881Z,31.91
2018-09-20T15:00:03.957Z,31.95
2018-09-20T15:02:06.953Z,32.29
2018-09-20T15:04:10.149Z,32.67
2018-09-20T15:06:15.229Z,32.61
2018-09-20T15:08:18.321Z,33.01
2018-09-20T15:10:21.199Z,33.07
2018-09-20T15:12:24.182Z,32.99
2018-09-20T15:14:27.165Z,33.15
2018-09-20T15:16:30.157Z,32.43
2018-09-20T15:18:33.264Z,32.53
2018-09-20T15:20:36.244Z,32.51
2018-09-20T15:22:39.241Z,32.52
2018-09-20T15:24:44.417Z,32.82
2018-09-20T15:26:47.405Z,33.86
2018-09-20T15:28:50.438Z,33.41
2018-09-20T15:30:53.521Z,33.22
2018-09-20T15:32:56.540Z,33.17
2018-09-20T15:34:59.579Z,32.32
2018-09-20T15:37:02.735Z,32.67
2018-09-20T15:39:09.401Z,33.11
2018-09-20T15:41:14.057Z,33.29
2018-09-20T15:43:18.041Z,32.99
2018-09-20T15:45:21.408Z,33.23
2018-09-20T15:47:24.468Z,32.74
2018-09-20T15:49:27.479Z,33.02
2018-09-20T15:51:30.849Z,33.43
2018-09-20T15:53:33.893Z,33.08
2018-09-20T15:55:36.949Z,33.16
2018-09-20T15:57:40.486Z,32.58
2018-09-20T15:59:45.566Z,32.69
2018-09-20T16:01:49.274Z,32.65
2018-09-20T16:03:52.534Z,32.52
2018-09-20T16:05:55.571Z,32.08
2018-09-20T16:07:58.568Z,31.45
2018-09-20T16:10:01.621Z,31.48
2018-09-20T16:12:04.714Z,31.61
2018-09-20T16:14:08.457Z,31.39
2018-09-20T16:16:13.160Z,31.47
2018-09-20T16:18:16.177Z,31.17
2018-09-20T16:20:19.349Z,31.07
2018-09-20T16:22:22.450Z,30.85
2018-09-20T16:24:25.533Z,30.82
2018-09-20T16:26:28.722Z,30.61
2018-09-20T16:28:46.362Z,30.47
2018-09-20T16:32:13.294Z,30.26
2018-09-20T16:35:07.289Z,30.09
2018-09-20T16:38:56.143Z,30.11
2018-09-20T16:41:03.086Z,29.77
2018-09-20T16:43:06.177Z,29.74
2018-09-20T16:45:09.158Z,29.72
2018-09-20T16:47:13.495Z,29.72
2018-09-20T16:49:16.556Z,29.71
2018-09-20T16:51:19.581Z,29.75
2018-09-20T16:53:22.930Z,29.59
2018-09-20T16:55:25.841Z,29.55
2018-09-20T16:57:28.858Z,29.54
2018-09-20T16:59:31.886Z,29.40
2018-09-20T17:01:34.890Z,29.19
2018-09-20T17:03:37.923Z,29.10
2018-09-20T17:05:40.994Z,29.04
2018-09-20T17:07:45.549Z,28.92
2018-09-20T17:09:48.613Z,28.76
2018-09-20T17:11:51.869Z,28.45
2018-09-20T17:13:55.019Z,28.33
2018-09-20T17:15:58.066Z,28.22
2018-09-20T17:18:01.243Z,28.11
2018-09-20T17:20:04.312Z,28.01
2018-09-20T17:22:07.400Z,27.88
2018-09-20T17:24:10.558Z,27.83
2018-09-20T17:26:15.203Z,27.73
2018-09-20T17:28:19.325Z,27.69
2018-09-20T17:30:22.451Z,27.46
2018-09-20T17:32:25.513Z,27.40
2018-09-20T17:34:28.886Z,27.04
2018-09-20T17:36:32.251Z,26.95
2018-09-20T17:38:36.567Z,26.93
2018-09-20T17:40:42.845Z,26.75
2018-09-20T17:42:47.312Z,26.68
2018-09-20T17:44:50.575Z,26.69
2018-09-20T17:46:53.639Z,26.56
2018-09-20T17:48:56.730Z,26.66
2018-09-20T17:51:00.471Z,26.54
2018-09-20T17:53:04.018Z,26.28
2018-09-20T17:55:07.806Z,26.20
2018-09-20T17:57:13.043Z,26.21
2018-09-20T17:59:16.051Z,26.02
2018-09-20T18:01:19.089Z,25.89
2018-09-20T18:03:22.093Z,25.86
2018-09-20T18:05:26.271Z,25.81
2018-09-20T18:07:29.277Z,25.69
2018-09-20T18:09:32.278Z,25.63
2018-09-20T18:11:35.351Z,25.52
2018-09-20T18:13:38.371Z,25.42
2018-09-20T18:15:43.425Z,25.31
2018-09-20T18:17:46.521Z,25.22
2018-09-20T18:19:52.859Z,25.18
2018-09-20T18:21:55.985Z,25.15
2018-09-20T18:23:59.003Z,25.13
2018-09-20T18:26:02.083Z,25.04
2018-09-20T18:28:05.172Z,25.19
2018-09-20T18:30:08.426Z,25.04
2018-09-20T18:32:12.809Z,24.82
2018-09-20T18:34:15.894Z,24.69
2018-09-20T18:36:19.018Z,24.62
2018-09-20T18:38:22.072Z,24.58
2018-09-20T18:40:29.159Z,24.53
2018-09-20T18:42:32.155Z,24.45
2018-09-20T18:44:35.225Z,24.31
2018-09-20T18:46:38.730Z,24.22
2018-09-20T18:48:43.721Z,24.11
2018-09-20T18:50:46.685Z,24.10
2018-09-20T18:52:49.922Z,24.22
2018-09-20T18:54:52.932Z,24.15
2018-09-20T18:56:55.934Z,23.98
2018-09-20T18:59:00.559Z,23.85
2018-09-20T19:01:03.648Z,23.83
2018-09-20T19:03:06.667Z,23.68
2018-09-20T19:05:09.714Z,23.55
2018-09-20T19:07:14.567Z,23.56
2018-09-20T19:09:17.601Z,23.45
2018-09-20T19:11:20.690Z,23.41
2018-09-20T19:13:23.698Z,23.36
2018-09-20T19:15:26.668Z,23.31
2018-09-20T19:17:29.711Z,23.20
2018-09-20T19:19:32.850Z,23.07
2018-09-20T19:21:35.858Z,22.94
2018-09-20T19:23:39.979Z,22.94
2018-09-20T19:25:44.267Z,22.98
2018-09-20T19:27:47.260Z,23.07
2018-09-20T19:29:50.442Z,23.33
2018-09-20T19:31:53.502Z,23.20
2018-09-20T19:33:56.586Z,23.05
2018-09-20T19:35:59.689Z,22.87
2018-09-20T19:38:02.781Z,22.73
2018-09-20T19:40:05.977Z,22.58
2018-09-20T19:42:09.063Z,22.44
2018-09-20T19:44:13.452Z,22.37
2018-09-20T19:46:16.490Z,22.24
2018-09-20T19:48:19.550Z,22.18
2018-09-20T19:50:22.553Z,22.02
2018-09-20T19:52:25.599Z,22.01
2018-09-20T19:54:28.622Z,21.92
2018-09-20T19:56:31.620Z,21.89
2018-09-20T19:58:34.640Z,21.90
2018-09-20T20:00:37.721Z,21.99
2018-09-20T20:02:40.693Z,22.12
2018-09-20T20:04:45.545Z,21.99
2018-09-20T20:06:48.576Z,21.97
2018-09-20T20:08:51.715Z,21.97
2018-09-20T20:10:54.797Z,21.96
2018-09-20T20:12:58.166Z,21.91
2018-09-20T20:15:01.285Z,21.76
2018-09-20T20:17:04.554Z,21.68
2018-09-20T20:19:07.926Z,21.45
2018-09-20T20:21:10.975Z,21.36
2018-09-20T20:23:15.129Z,21.26
2018-09-20T20:25:18.266Z,21.14
2018-09-20T20:27:21.313Z,21.17
2018-09-20T20:29:24.288Z,21.20
2018-09-20T20:31:27.297Z,21.38
2018-09-20T20:33:30.298Z,21.52
2018-09-20T20:35:33.329Z,21.32
2018-09-20T20:37:36.361Z,21.47
2018-09-20T20:39:39.488Z,21.20
2018-09-20T20:41:44.077Z,21.20
2018-09-20T20:43:47.085Z,20.95
2018-09-20T20:45:50.153Z,20.79
2018-09-20T20:47:53.179Z,20.68
2018-09-20T20:49:56.233Z,20.66
2018-09-20T20:51:59.228Z,20.75
2018-09-20T20:54:02.259Z,20.81
2018-09-20T20:56:05.317Z,20.55
2018-09-20T20:58:08.511Z,20.49
2018-09-20T21:00:13.653Z,20.34
2018-09-20T21:02:16.665Z,20.34
2018-09-20T21:04:19.694Z,20.14
2018-09-20T21:06:22.777Z,20.13
2018-09-20T21:08:25.804Z,20.22
2018-09-20T21:10:28.874Z,20.13
2018-09-20T21:12:31.909Z,20.01
2018-09-20T21:14:34.963Z,20.03
2018-09-20T21:16:38.001Z,19.91
2018-09-20T21:18:42.616Z,19.89
2018-09-20T21:20:45.689Z,19.85
2018-09-20T21:22:48.731Z,19.87
2018-09-20T21:24:51.761Z,19.85
2018-09-20T21:26:54.797Z,19.86
2018-09-20T21:28:57.821Z,19.79
2018-09-20T21:31:01.042Z,19.71
2018-09-20T21:33:04.154Z,19.67
2018-09-20T21:35:07.169Z,19.71
2018-09-20T21:37:10.247Z,19.76
2018-09-20T21:39:14.043Z,19.81
2018-09-20T21:41:17.280Z,19.82
2018-09-20T21:43:20.279Z,19.89
2018-09-20T21:45:23.277Z,20.01
2018-09-20T21:47:26.334Z,20.19
2018-09-20T21:49:29.357Z,19.87
2018-09-20T21:51:32.555Z,19.84
2018-09-20T21:53:35.698Z,19.73
2018-09-20T21:55:38.714Z,19.53
2018-09-20T21:57:42.055Z,19.47
2018-09-20T21:59:45.119Z,19.39
2018-09-20T22:01:53.856Z,19.28
2018-09-20T22:03:56.862Z,19.18
2018-09-20T22:05:59.944Z,19.18
2018-09-20T22:08:02.952Z,19.13
2018-09-20T22:10:06.181Z,19.01
2018-09-20T22:12:09.195Z,19.09
2018-09-20T22:14:13.639Z,19.05
2018-09-20T22:16:16.673Z,19.12
2018-09-20T22:18:19.706Z,19.14
2018-09-20T22:20:24.117Z,19.07
2018-09-20T22:22:27.104Z,19.17
2018-09-20T22:24:30.117Z,19.13
2018-09-20T22:26:33.192Z,19.13
2018-09-20T22:28:36.290Z,18.95
2018-09-20T22:30:39.302Z,19.00
2018-09-20T22:32:44.005Z,19.06
2018-09-20T22:34:47.059Z,19.01
2018-09-20T22:36:50.466Z,18.97
2018-09-20T22:38:53.478Z,19.05
2018-09-20T22:40:56.515Z,18.98
2018-09-20T22:42:59.537Z,18.97
2018-09-20T22:45:03.278Z,19.13
2018-09-20T22:47:06.335Z,19.11
2018-09-20T22:49:09.334Z,18.99
2018-09-20T22:51:14.170Z,18.98
2018-09-20T22:53:17.245Z,18.94
2018-09-20T22:55:20.282Z,18.83
2018-09-20T22:57:23.262Z,18.82
2018-09-20T22:59:26.282Z,18.90
2018-09-20T23:01:29.297Z,18.89
2018-09-20T23:03:32.286Z,18.91
2018-09-20T23:05:35.319Z,18.84
2018-09-20T23:07:38.389Z,18.80
2018-09-20T23:09:43.360Z,18.79
2018-09-20T23:11:46.469Z,18.77
2018-09-20T23:13:49.565Z,18.76
2018-09-20T23:15:52.567Z,18.74
2018-09-20T23:17:55.596Z,18.69
2018-09-20T23:19:58.610Z,18.67
2018-09-20T23:22:01.626Z,18.88
2018-09-20T23:24:04.665Z,19.07
2018-09-20T23:26:07.686Z,18.90
2018-09-20T23:28:10.680Z,18.72
2018-09-20T23:30:15.078Z,18.71
2018-09-20T23:32:18.457Z,18.63
2018-09-20T23:34:21.425Z,18.61
2018-09-20T23:36:24.443Z,18.59
2018-09-20T23:38:27.425Z,18.58
2018-09-20T23:40:30.374Z,18.59
2018-09-20T23:42:33.353Z,18.70
2018-09-20T23:44:36.427Z,18.74
2018-09-20T23:46:39.406Z,18.57
2018-09-20T23:48:43.977Z,18.49
2018-09-20T23:50:47.048Z,18.45
2018-09-20T23:52:50.097Z,18.44
2018-09-20T23:54:53.077Z,18.42
2018-09-20T23:56:56.134Z,18.30
2018-09-20T23:58:59.137Z,18.26
